sensor_id;sensor_type;location;lat;lon;timestamp;P1;durP1;ratioP1;P2;durP2;ratioP2
42754;SDS011;28407;51.830;5.684;2023-08-20T00:00:40;5.30;;;3.55;;
42754;SDS011;28407;51.830;5.684;2023-08-20T00:02:42;3.97;;;2.45;;
42754;SDS011;28407;51.830;5.684;2023-08-20T00:04:43;5.57;;;3.03;;
42754;SDS011;28407;51.830;5.684;2023-08-20T00:06:46;4.43;;;2.35;;
42754;SDS011;28407;51.830;5.684;2023-08-20T00:08:47;7.72;;;2.33;;
42754;SDS011;28407;51.830;5.684;2023-08-20T00:10:48;4.22;;;2.22;;
42754;SDS011;28407;51.830;5.684;2023-08-20T00:12:49;3.33;;;2.20;;
42754;SDS011;28407;51.830;5.684;2023-08-20T00:14:59;4.72;;;2.38;;
42754;SDS011;28407;51.830;5.684;2023-08-20T00:17:08;11.45;;;3.83;;
42754;SDS011;28407;51.830;5.684;2023-08-20T00:19:09;4.17;;;2.20;;
42754;SDS011;28407;51.830;5.684;2023-08-20T00:21:11;2.92;;;1.92;;
42754;SDS011;28407;51.830;5.684;2023-08-20T00:23:12;4.57;;;1.83;;
42754;SDS011;28407;51.830;5.684;2023-08-20T00:25:13;3.47;;;2.07;;
42754;SDS011;28407;51.830;5.684;2023-08-20T00:27:15;4.50;;;2.83;;
42754;SDS011;28407;51.830;5.684;2023-08-20T00:29:16;3.90;;;1.90;;
42754;SDS011;28407;51.830;5.684;2023-08-20T00:31:16;4.25;;;2.35;;
42754;SDS011;28407;51.830;5.684;2023-08-20T00:33:17;4.63;;;2.05;;
42754;SDS011;28407;51.830;5.684;2023-08-20T00:35:18;4.70;;;2.30;;
42754;SDS011;28407;51.830;5.684;2023-08-20T00:37:19;3.53;;;2.20;;
42754;SDS011;28407;51.830;5.684;2023-08-20T00:39:20;2.30;;;1.70;;
42754;SDS011;28407;51.830;5.684;2023-08-20T00:41:21;3.95;;;1.77;;
42754;SDS011;28407;51.830;5.684;2023-08-20T00:43:21;4.93;;;2.03;;
42754;SDS011;28407;51.830;5.684;2023-08-20T00:45:23;4.35;;;1.92;;
42754;SDS011;28407;51.830;5.684;2023-08-20T00:47:24;3.20;;;1.80;;
42754;SDS011;28407;51.830;5.684;2023-08-20T00:49:25;3.85;;;2.10;;
42754;SDS011;28407;51.830;5.684;2023-08-20T00:51:26;2.97;;;1.83;;
42754;SDS011;28407;51.830;5.684;2023-08-20T00:53:28;3.20;;;1.88;;
42754;SDS011;28407;51.830;5.684;2023-08-20T00:55:29;3.20;;;1.48;;
42754;SDS011;28407;51.830;5.684;2023-08-20T00:57:30;4.25;;;1.95;;
42754;SDS011;28407;51.830;5.684;2023-08-20T00:59:31;4.35;;;1.60;;
42754;SDS011;28407;51.830;5.684;2023-08-20T01:01:33;6.00;;;2.75;;
42754;SDS011;28407;51.830;5.684;2023-08-20T01:03:33;3.70;;;1.85;;
42754;SDS011;28407;51.830;5.684;2023-08-20T01:05:50;4.63;;;1.95;;
42754;SDS011;28407;51.830;5.684;2023-08-20T01:08:04;3.03;;;1.95;;
42754;SDS011;28407;51.830;5.684;2023-08-20T01:10:18;2.22;;;1.48;;
42754;SDS011;28407;51.830;5.684;2023-08-20T01:12:25;2.92;;;1.98;;
42754;SDS011;28407;51.830;5.684;2023-08-20T01:14:26;2.90;;;1.88;;
42754;SDS011;28407;51.830;5.684;2023-08-20T01:16:27;2.90;;;1.73;;
42754;SDS011;28407;51.830;5.684;2023-08-20T01:18:28;3.05;;;1.95;;
42754;SDS011;28407;51.830;5.684;2023-08-20T01:20:30;4.50;;;2.60;;
42754;SDS011;28407;51.830;5.684;2023-08-20T01:25:10;6.60;;;1.92;;
42754;SDS011;28407;51.830;5.684;2023-08-20T01:27:32;2.90;;;2.20;;
42754;SDS011;28407;51.830;5.684;2023-08-20T01:29:45;3.95;;;2.10;;
42754;SDS011;28407;51.830;5.684;2023-08-20T01:31:46;2.78;;;1.90;;
42754;SDS011;28407;51.830;5.684;2023-08-20T01:33:47;2.80;;;1.70;;
42754;SDS011;28407;51.830;5.684;2023-08-20T01:35:49;3.85;;;2.42;;
42754;SDS011;28407;51.830;5.684;2023-08-20T01:37:50;4.72;;;2.33;;
42754;SDS011;28407;51.830;5.684;2023-08-20T01:39:51;3.97;;;2.42;;
42754;SDS011;28407;51.830;5.684;2023-08-20T01:41:51;3.22;;;2.13;;
42754;SDS011;28407;51.830;5.684;2023-08-20T01:43:52;4.13;;;2.28;;
42754;SDS011;28407;51.830;5.684;2023-08-20T01:45:53;6.05;;;2.80;;
42754;SDS011;28407;51.830;5.684;2023-08-20T01:47:53;4.43;;;2.33;;
42754;SDS011;28407;51.830;5.684;2023-08-20T01:49:54;5.40;;;2.65;;
42754;SDS011;28407;51.830;5.684;2023-08-20T01:51:55;3.05;;;1.88;;
42754;SDS011;28407;51.830;5.684;2023-08-20T01:53:56;5.07;;;2.30;;
42754;SDS011;28407;51.830;5.684;2023-08-20T01:55:58;7.53;;;2.10;;
42754;SDS011;28407;51.830;5.684;2023-08-20T01:57:58;4.22;;;1.85;;
42754;SDS011;28407;51.830;5.684;2023-08-20T01:59:59;3.55;;;1.83;;
42754;SDS011;28407;51.830;5.684;2023-08-20T02:02:00;3.17;;;1.80;;
42754;SDS011;28407;51.830;5.684;2023-08-20T02:04:01;4.65;;;2.30;;
42754;SDS011;28407;51.830;5.684;2023-08-20T02:06:02;3.70;;;2.00;;
42754;SDS011;28407;51.830;5.684;2023-08-20T02:08:03;2.58;;;1.83;;
42754;SDS011;28407;51.830;5.684;2023-08-20T02:10:06;3.72;;;2.17;;
42754;SDS011;28407;51.830;5.684;2023-08-20T02:12:07;2.78;;;2.08;;
42754;SDS011;28407;51.830;5.684;2023-08-20T02:14:08;3.08;;;2.00;;
42754;SDS011;28407;51.830;5.684;2023-08-20T02:16:09;3.03;;;2.15;;
42754;SDS011;28407;51.830;5.684;2023-08-20T02:18:10;3.90;;;2.35;;
42754;SDS011;28407;51.830;5.684;2023-08-20T02:20:10;3.90;;;1.98;;
42754;SDS011;28407;51.830;5.684;2023-08-20T02:22:11;3.28;;;1.90;;
42754;SDS011;28407;51.830;5.684;2023-08-20T02:24:12;3.90;;;2.08;;
42754;SDS011;28407;51.830;5.684;2023-08-20T02:26:12;3.00;;;1.85;;
42754;SDS011;28407;51.830;5.684;2023-08-20T02:28:13;3.83;;;1.88;;
42754;SDS011;28407;51.830;5.684;2023-08-20T02:30:14;3.45;;;1.80;;
42754;SDS011;28407;51.830;5.684;2023-08-20T02:32:15;3.33;;;1.98;;
42754;SDS011;28407;51.830;5.684;2023-08-20T02:34:16;3.30;;;2.13;;
42754;SDS011;28407;51.830;5.684;2023-08-20T02:36:16;3.72;;;2.65;;
42754;SDS011;28407;51.830;5.684;2023-08-20T02:38:17;3.05;;;2.40;;
42754;SDS011;28407;51.830;5.684;2023-08-20T02:40:18;4.10;;;2.05;;
42754;SDS011;28407;51.830;5.684;2023-08-20T02:42:18;3.63;;;1.80;;
42754;SDS011;28407;51.830;5.684;2023-08-20T02:44:19;3.45;;;2.10;;
42754;SDS011;28407;51.830;5.684;2023-08-20T02:46:21;3.10;;;2.05;;
42754;SDS011;28407;51.830;5.684;2023-08-20T02:48:21;4.45;;;2.42;;
42754;SDS011;28407;51.830;5.684;2023-08-20T02:50:27;3.42;;;2.03;;
42754;SDS011;28407;51.830;5.684;2023-08-20T02:52:28;3.30;;;2.17;;
42754;SDS011;28407;51.830;5.684;2023-08-20T02:54:29;3.65;;;2.08;;
42754;SDS011;28407;51.830;5.684;2023-08-20T02:56:32;3.92;;;2.03;;
42754;SDS011;28407;51.830;5.684;2023-08-20T02:58:32;3.83;;;1.92;;
42754;SDS011;28407;51.830;5.684;2023-08-20T03:00:33;4.30;;;2.25;;
42754;SDS011;28407;51.830;5.684;2023-08-20T03:02:34;3.05;;;1.60;;
42754;SDS011;28407;51.830;5.684;2023-08-20T03:04:35;2.58;;;1.55;;
42754;SDS011;28407;51.830;5.684;2023-08-20T03:06:35;2.58;;;1.77;;
42754;SDS011;28407;51.830;5.684;2023-08-20T03:08:36;3.28;;;1.92;;
42754;SDS011;28407;51.830;5.684;2023-08-20T03:10:37;3.03;;;2.05;;
42754;SDS011;28407;51.830;5.684;2023-08-20T03:12:37;5.05;;;1.80;;
42754;SDS011;28407;51.830;5.684;2023-08-20T03:14:38;2.17;;;1.23;;
42754;SDS011;28407;51.830;5.684;2023-08-20T03:16:39;2.13;;;1.27;;
42754;SDS011;28407;51.830;5.684;2023-08-20T03:18:39;1.67;;;1.25;;
42754;SDS011;28407;51.830;5.684;2023-08-20T03:20:40;1.25;;;0.90;;
42754;SDS011;28407;51.830;5.684;2023-08-20T03:22:41;2.85;;;1.30;;
42754;SDS011;28407;51.830;5.684;2023-08-20T03:24:41;3.80;;;2.45;;
42754;SDS011;28407;51.830;5.684;2023-08-20T03:26:42;2.63;;;1.10;;
42754;SDS011;28407;51.830;5.684;2023-08-20T03:28:43;2.60;;;1.40;;
42754;SDS011;28407;51.830;5.684;2023-08-20T03:30:44;2.25;;;1.35;;
42754;SDS011;28407;51.830;5.684;2023-08-20T03:32:47;2.80;;;1.63;;
42754;SDS011;28407;51.830;5.684;2023-08-20T03:34:48;2.88;;;1.83;;
42754;SDS011;28407;51.830;5.684;2023-08-20T03:36:52;2.55;;;1.70;;
42754;SDS011;28407;51.830;5.684;2023-08-20T03:38:52;3.85;;;2.00;;
42754;SDS011;28407;51.830;5.684;2023-08-20T03:40:55;3.25;;;2.45;;
42754;SDS011;28407;51.830;5.684;2023-08-20T03:42:56;3.13;;;2.00;;
42754;SDS011;28407;51.830;5.684;2023-08-20T03:44:57;3.42;;;2.05;;
42754;SDS011;28407;51.830;5.684;2023-08-20T03:46:57;3.45;;;1.70;;
42754;SDS011;28407;51.830;5.684;2023-08-20T03:49:00;2.55;;;1.80;;
42754;SDS011;28407;51.830;5.684;2023-08-20T03:51:01;2.10;;;1.40;;
42754;SDS011;28407;51.830;5.684;2023-08-20T03:53:02;2.45;;;1.20;;
42754;SDS011;28407;51.830;5.684;2023-08-20T03:55:03;3.58;;;1.20;;
42754;SDS011;28407;51.830;5.684;2023-08-20T03:57:04;2.20;;;1.33;;
42754;SDS011;28407;51.830;5.684;2023-08-20T03:59:05;3.45;;;1.70;;
42754;SDS011;28407;51.830;5.684;2023-08-20T04:01:06;3.93;;;1.80;;
42754;SDS011;28407;51.830;5.684;2023-08-20T04:03:06;3.45;;;1.85;;
42754;SDS011;28407;51.830;5.684;2023-08-20T04:05:07;3.70;;;2.05;;
42754;SDS011;28407;51.830;5.684;2023-08-20T04:07:08;3.33;;;1.95;;
42754;SDS011;28407;51.830;5.684;2023-08-20T04:09:09;3.22;;;2.10;;
42754;SDS011;28407;51.830;5.684;2023-08-20T04:11:10;3.47;;;1.90;;
42754;SDS011;28407;51.830;5.684;2023-08-20T04:13:13;3.83;;;2.10;;
42754;SDS011;28407;51.830;5.684;2023-08-20T04:15:16;4.18;;;2.45;;
42754;SDS011;28407;51.830;5.684;2023-08-20T04:17:16;4.05;;;2.30;;
42754;SDS011;28407;51.830;5.684;2023-08-20T04:19:17;4.00;;;2.08;;
42754;SDS011;28407;51.830;5.684;2023-08-20T04:21:18;3.92;;;2.45;;
42754;SDS011;28407;51.830;5.684;2023-08-20T04:23:19;4.00;;;1.85;;
42754;SDS011;28407;51.830;5.684;2023-08-20T04:25:20;5.00;;;2.03;;
42754;SDS011;28407;51.830;5.684;2023-08-20T04:27:21;3.20;;;2.03;;
42754;SDS011;28407;51.830;5.684;2023-08-20T04:29:22;3.67;;;2.00;;
42754;SDS011;28407;51.830;5.684;2023-08-20T04:31:23;4.28;;;1.98;;
42754;SDS011;28407;51.830;5.684;2023-08-20T04:33:30;3.72;;;2.13;;
42754;SDS011;28407;51.830;5.684;2023-08-20T04:35:31;4.25;;;2.17;;
42754;SDS011;28407;51.830;5.684;2023-08-20T04:37:32;4.63;;;2.80;;
42754;SDS011;28407;51.830;5.684;2023-08-20T04:39:32;5.28;;;2.05;;
42754;SDS011;28407;51.830;5.684;2023-08-20T04:41:33;3.08;;;1.98;;
42754;SDS011;28407;51.830;5.684;2023-08-20T04:43:34;3.75;;;1.95;;
42754;SDS011;28407;51.830;5.684;2023-08-20T04:45:35;3.42;;;2.28;;
42754;SDS011;28407;51.830;5.684;2023-08-20T04:47:36;4.40;;;2.25;;
42754;SDS011;28407;51.830;5.684;2023-08-20T04:49:38;3.28;;;1.98;;
42754;SDS011;28407;51.830;5.684;2023-08-20T04:51:39;3.00;;;1.73;;
42754;SDS011;28407;51.830;5.684;2023-08-20T04:53:39;2.63;;;1.80;;
42754;SDS011;28407;51.830;5.684;2023-08-20T04:55:40;3.72;;;1.85;;
42754;SDS011;28407;51.830;5.684;2023-08-20T04:57:42;4.45;;;2.10;;
42754;SDS011;28407;51.830;5.684;2023-08-20T04:59:43;2.88;;;1.80;;
42754;SDS011;28407;51.830;5.684;2023-08-20T05:02:14;3.60;;;2.03;;
42754;SDS011;28407;51.830;5.684;2023-08-20T05:04:21;3.25;;;2.10;;
42754;SDS011;28407;51.830;5.684;2023-08-20T05:06:22;2.45;;;1.60;;
42754;SDS011;28407;51.830;5.684;2023-08-20T05:08:23;2.20;;;1.65;;
42754;SDS011;28407;51.830;5.684;2023-08-20T05:10:23;3.92;;;2.00;;
42754;SDS011;28407;51.830;5.684;2023-08-20T05:12:24;3.55;;;1.85;;
42754;SDS011;28407;51.830;5.684;2023-08-20T05:14:25;3.22;;;1.80;;
42754;SDS011;28407;51.830;5.684;2023-08-20T05:16:25;3.78;;;1.85;;
42754;SDS011;28407;51.830;5.684;2023-08-20T05:18:26;5.15;;;2.22;;
42754;SDS011;28407;51.830;5.684;2023-08-20T05:20:28;2.55;;;1.83;;
42754;SDS011;28407;51.830;5.684;2023-08-20T05:22:29;3.17;;;1.80;;
42754;SDS011;28407;51.830;5.684;2023-08-20T05:24:29;2.35;;;1.50;;
42754;SDS011;28407;51.830;5.684;2023-08-20T05:26:30;3.75;;;2.17;;
42754;SDS011;28407;51.830;5.684;2023-08-20T05:28:31;2.50;;;1.73;;
42754;SDS011;28407;51.830;5.684;2023-08-20T05:30:33;2.97;;;1.75;;
42754;SDS011;28407;51.830;5.684;2023-08-20T05:32:34;2.65;;;1.83;;
42754;SDS011;28407;51.830;5.684;2023-08-20T05:34:35;4.50;;;2.88;;
42754;SDS011;28407;51.830;5.684;2023-08-20T05:36:36;2.95;;;1.85;;
42754;SDS011;28407;51.830;5.684;2023-08-20T05:38:37;3.55;;;1.95;;
42754;SDS011;28407;51.830;5.684;2023-08-20T05:40:38;2.17;;;1.67;;
42754;SDS011;28407;51.830;5.684;2023-08-20T05:42:39;2.53;;;1.70;;
42754;SDS011;28407;51.830;5.684;2023-08-20T05:44:41;3.25;;;2.30;;
42754;SDS011;28407;51.830;5.684;2023-08-20T05:46:45;3.08;;;2.28;;
42754;SDS011;28407;51.830;5.684;2023-08-20T05:48:46;2.97;;;2.03;;
42754;SDS011;28407;51.830;5.684;2023-08-20T05:50:48;4.77;;;2.80;;
42754;SDS011;28407;51.830;5.684;2023-08-20T05:52:49;4.38;;;2.88;;
42754;SDS011;28407;51.830;5.684;2023-08-20T05:54:50;3.00;;;2.35;;
42754;SDS011;28407;51.830;5.684;2023-08-20T05:56:51;4.72;;;2.67;;
42754;SDS011;28407;51.830;5.684;2023-08-20T05:58:51;3.60;;;1.98;;
42754;SDS011;28407;51.830;5.684;2023-08-20T06:00:52;2.85;;;2.13;;
42754;SDS011;28407;51.830;5.684;2023-08-20T06:02:53;4.80;;;2.33;;
42754;SDS011;28407;51.830;5.684;2023-08-20T06:04:53;4.18;;;2.15;;
42754;SDS011;28407;51.830;5.684;2023-08-20T06:06:54;4.53;;;2.33;;
42754;SDS011;28407;51.830;5.684;2023-08-20T06:08:55;3.95;;;2.17;;
42754;SDS011;28407;51.830;5.684;2023-08-20T06:10:55;7.13;;;2.33;;
42754;SDS011;28407;51.830;5.684;2023-08-20T06:12:56;5.53;;;2.30;;
42754;SDS011;28407;51.830;5.684;2023-08-20T06:14:57;4.40;;;1.90;;
42754;SDS011;28407;51.830;5.684;2023-08-20T06:16:57;2.88;;;1.70;;
42754;SDS011;28407;51.830;5.684;2023-08-20T06:18:58;6.38;;;2.33;;
42754;SDS011;28407;51.830;5.684;2023-08-20T06:20:59;7.18;;;3.08;;
42754;SDS011;28407;51.830;5.684;2023-08-20T06:22:59;5.78;;;2.38;;
42754;SDS011;28407;51.830;5.684;2023-08-20T06:25:00;3.92;;;1.95;;
42754;SDS011;28407;51.830;5.684;2023-08-20T06:27:01;3.05;;;1.90;;
42754;SDS011;28407;51.830;5.684;2023-08-20T06:29:01;3.58;;;1.58;;
42754;SDS011;28407;51.830;5.684;2023-08-20T06:31:02;5.10;;;2.35;;
42754;SDS011;28407;51.830;5.684;2023-08-20T06:33:03;5.03;;;1.83;;
42754;SDS011;28407;51.830;5.684;2023-08-20T06:35:04;3.30;;;1.88;;
42754;SDS011;28407;51.830;5.684;2023-08-20T06:37:05;4.20;;;2.40;;
42754;SDS011;28407;51.830;5.684;2023-08-20T06:39:06;3.67;;;1.85;;
42754;SDS011;28407;51.830;5.684;2023-08-20T06:41:07;4.35;;;2.15;;
42754;SDS011;28407;51.830;5.684;2023-08-20T06:43:07;4.22;;;2.22;;
42754;SDS011;28407;51.830;5.684;2023-08-20T06:45:08;3.55;;;1.98;;
42754;SDS011;28407;51.830;5.684;2023-08-20T06:47:09;2.92;;;1.70;;
42754;SDS011;28407;51.830;5.684;2023-08-20T06:49:10;6.40;;;1.92;;
42754;SDS011;28407;51.830;5.684;2023-08-20T06:51:11;4.50;;;1.95;;
42754;SDS011;28407;51.830;5.684;2023-08-20T06:53:12;2.67;;;1.50;;
42754;SDS011;28407;51.830;5.684;2023-08-20T06:55:13;3.40;;;2.25;;
42754;SDS011;28407;51.830;5.684;2023-08-20T06:57:14;1.77;;;0.88;;
42754;SDS011;28407;51.830;5.684;2023-08-20T06:59:15;2.50;;;1.27;;
42754;SDS011;28407;51.830;5.684;2023-08-20T07:01:16;3.05;;;1.30;;
42754;SDS011;28407;51.830;5.684;2023-08-20T07:03:18;3.63;;;1.10;;
42754;SDS011;28407;51.830;5.684;2023-08-20T07:05:18;4.10;;;1.58;;
42754;SDS011;28407;51.830;5.684;2023-08-20T07:07:19;4.75;;;1.65;;
42754;SDS011;28407;51.830;5.684;2023-08-20T07:09:19;2.20;;;1.10;;
42754;SDS011;28407;51.830;5.684;2023-08-20T07:11:20;2.20;;;0.90;;
42754;SDS011;28407;51.830;5.684;2023-08-20T07:13:21;1.92;;;1.02;;
42754;SDS011;28407;51.830;5.684;2023-08-20T07:15:23;1.83;;;0.88;;
42754;SDS011;28407;51.830;5.684;2023-08-20T07:17:23;2.88;;;1.95;;
42754;SDS011;28407;51.830;5.684;2023-08-20T07:19:24;2.35;;;1.00;;
42754;SDS011;28407;51.830;5.684;2023-08-20T07:21:25;4.53;;;1.10;;
42754;SDS011;28407;51.830;5.684;2023-08-20T07:23:25;2.53;;;1.00;;
42754;SDS011;28407;51.830;5.684;2023-08-20T07:25:26;2.58;;;1.00;;
42754;SDS011;28407;51.830;5.684;2023-08-20T07:27:27;4.88;;;1.05;;
42754;SDS011;28407;51.830;5.684;2023-08-20T07:29:27;5.07;;;2.15;;
42754;SDS011;28407;51.830;5.684;2023-08-20T07:33:31;2.05;;;0.80;;
42754;SDS011;28407;51.830;5.684;2023-08-20T07:35:32;4.20;;;0.90;;
42754;SDS011;28407;51.830;5.684;2023-08-20T07:37:32;2.25;;;0.80;;
42754;SDS011;28407;51.830;5.684;2023-08-20T07:39:33;2.40;;;0.80;;
42754;SDS011;28407;51.830;5.684;2023-08-20T07:41:34;1.80;;;0.80;;
42754;SDS011;28407;51.830;5.684;2023-08-20T07:43:34;3.78;;;1.05;;
42754;SDS011;28407;51.830;5.684;2023-08-20T07:45:36;2.38;;;1.35;;
42754;SDS011;28407;51.830;5.684;2023-08-20T07:47:37;4.20;;;1.13;;
42754;SDS011;28407;51.830;5.684;2023-08-20T07:49:38;3.93;;;2.20;;
42754;SDS011;28407;51.830;5.684;2023-08-20T07:51:39;3.22;;;1.13;;
42754;SDS011;28407;51.830;5.684;2023-08-20T07:53:39;3.53;;;1.08;;
42754;SDS011;28407;51.830;5.684;2023-08-20T07:55:40;2.85;;;0.82;;
42754;SDS011;28407;51.830;5.684;2023-08-20T07:57:40;1.52;;;0.70;;
42754;SDS011;28407;51.830;5.684;2023-08-20T07:59:41;3.75;;;0.70;;
42754;SDS011;28407;51.830;5.684;2023-08-20T08:01:42;4.03;;;1.10;;
42754;SDS011;28407;51.830;5.684;2023-08-20T08:03:42;1.85;;;0.80;;
42754;SDS011;28407;51.830;5.684;2023-08-20T08:05:47;2.75;;;0.80;;
42754;SDS011;28407;51.830;5.684;2023-08-20T08:07:48;0.95;;;0.70;;
42754;SDS011;28407;51.830;5.684;2023-08-20T08:09:49;2.85;;;1.00;;
42754;SDS011;28407;51.830;5.684;2023-08-20T08:11:49;5.03;;;0.95;;
42754;SDS011;28407;51.830;5.684;2023-08-20T08:13:50;7.50;;;0.80;;
42754;SDS011;28407;51.830;5.684;2023-08-20T08:15:51;2.33;;;0.80;;
42754;SDS011;28407;51.830;5.684;2023-08-20T08:17:52;5.32;;;0.75;;
42754;SDS011;28407;51.830;5.684;2023-08-20T08:19:52;4.28;;;1.83;;
42754;SDS011;28407;51.830;5.684;2023-08-20T08:21:56;1.92;;;0.73;;
42754;SDS011;28407;51.830;5.684;2023-08-20T08:23:57;2.20;;;0.90;;
42754;SDS011;28407;51.830;5.684;2023-08-20T08:25:58;2.15;;;0.70;;
42754;SDS011;28407;51.830;5.684;2023-08-20T08:28:01;4.55;;;1.90;;
42754;SDS011;28407;51.830;5.684;2023-08-20T08:30:03;2.70;;;0.77;;
42754;SDS011;28407;51.830;5.684;2023-08-20T08:32:04;3.70;;;0.73;;
42754;SDS011;28407;51.830;5.684;2023-08-20T08:34:04;1.48;;;0.60;;
42754;SDS011;28407;51.830;5.684;2023-08-20T08:36:05;3.13;;;1.08;;
42754;SDS011;28407;51.830;5.684;2023-08-20T08:38:06;2.63;;;0.90;;
42754;SDS011;28407;51.830;5.684;2023-08-20T08:40:07;2.45;;;0.98;;
42754;SDS011;28407;51.830;5.684;2023-08-20T08:44:10;1.73;;;0.75;;
42754;SDS011;28407;51.830;5.684;2023-08-20T08:46:14;2.50;;;0.80;;
42754;SDS011;28407;51.830;5.684;2023-08-20T08:48:15;4.07;;;1.00;;
42754;SDS011;28407;51.830;5.684;2023-08-20T08:50:17;2.55;;;0.88;;
42754;SDS011;28407;51.830;5.684;2023-08-20T08:52:18;2.57;;;0.80;;
42754;SDS011;28407;51.830;5.684;2023-08-20T08:54:19;1.90;;;0.80;;
42754;SDS011;28407;51.830;5.684;2023-08-20T08:56:21;1.10;;;0.68;;
42754;SDS011;28407;51.830;5.684;2023-08-20T08:58:21;1.58;;;0.80;;
42754;SDS011;28407;51.830;5.684;2023-08-20T09:00:22;2.40;;;0.65;;
42754;SDS011;28407;51.830;5.684;2023-08-20T09:02:23;2.10;;;0.75;;
42754;SDS011;28407;51.830;5.684;2023-08-20T09:04:23;1.95;;;0.80;;
42754;SDS011;28407;51.830;5.684;2023-08-20T09:06:24;1.02;;;0.60;;
42754;SDS011;28407;51.830;5.684;2023-08-20T09:08:29;1.63;;;0.60;;
42754;SDS011;28407;51.830;5.684;2023-08-20T09:10:30;1.55;;;0.60;;
42754;SDS011;28407;51.830;5.684;2023-08-20T09:12:31;3.67;;;0.60;;
42754;SDS011;28407;51.830;5.684;2023-08-20T09:14:34;1.52;;;0.60;;
42754;SDS011;28407;51.830;5.684;2023-08-20T09:16:35;2.03;;;0.50;;
42754;SDS011;28407;51.830;5.684;2023-08-20T09:18:44;1.15;;;0.43;;
42754;SDS011;28407;51.830;5.684;2023-08-20T09:20:46;0.47;;;0.40;;
42754;SDS011;28407;51.830;5.684;2023-08-20T09:22:49;2.08;;;0.50;;
42754;SDS011;28407;51.830;5.684;2023-08-20T09:24:54;2.53;;;0.43;;
42754;SDS011;28407;51.830;5.684;2023-08-20T09:26:56;0.73;;;0.30;;
42754;SDS011;28407;51.830;5.684;2023-08-20T09:28:59;0.65;;;0.30;;
42754;SDS011;28407;51.830;5.684;2023-08-20T09:31:00;0.70;;;0.30;;
42754;SDS011;28407;51.830;5.684;2023-08-20T09:35:17;2.60;;;1.38;;
42754;SDS011;28407;51.830;5.684;2023-08-20T09:37:19;1.65;;;0.55;;
42754;SDS011;28407;51.830;5.684;2023-08-20T09:39:26;0.82;;;0.30;;
42754;SDS011;28407;51.830;5.684;2023-08-20T09:41:28;0.73;;;0.20;;
42754;SDS011;28407;51.830;5.684;2023-08-20T09:43:30;0.28;;;0.20;;
42754;SDS011;28407;51.830;5.684;2023-08-20T09:45:33;0.65;;;0.30;;
42754;SDS011;28407;51.830;5.684;2023-08-20T09:47:37;0.90;;;0.30;;
42754;SDS011;28407;51.830;5.684;2023-08-20T09:49:44;1.05;;;0.28;;
42754;SDS011;28407;51.830;5.684;2023-08-20T09:51:46;1.83;;;0.30;;
42754;SDS011;28407;51.830;5.684;2023-08-20T09:54:13;1.52;;;0.25;;
42754;SDS011;28407;51.830;5.684;2023-08-20T09:58:29;0.60;;;0.20;;
42754;SDS011;28407;51.830;5.684;2023-08-20T10:00:31;0.60;;;0.20;;
42754;SDS011;28407;51.830;5.684;2023-08-20T10:04:34;2.33;;;0.30;;
42754;SDS011;28407;51.830;5.684;2023-08-20T10:06:34;0.75;;;0.20;;
42754;SDS011;28407;51.830;5.684;2023-08-20T10:10:38;0.40;;;0.20;;
42754;SDS011;28407;51.830;5.684;2023-08-20T10:12:39;1.05;;;0.30;;
42754;SDS011;28407;51.830;5.684;2023-08-20T10:14:40;1.08;;;0.20;;
42754;SDS011;28407;51.830;5.684;2023-08-20T10:16:41;0.32;;;0.15;;
42754;SDS011;28407;51.830;5.684;2023-08-20T10:18:42;0.30;;;0.30;;
42754;SDS011;28407;51.830;5.684;2023-08-20T10:20:43;1.00;;;0.20;;
42754;SDS011;28407;51.830;5.684;2023-08-20T10:22:44;0.55;;;0.22;;
42754;SDS011;28407;51.830;5.684;2023-08-20T10:24:49;0.35;;;0.20;;
42754;SDS011;28407;51.830;5.684;2023-08-20T10:27:09;0.93;;;0.20;;
42754;SDS011;28407;51.830;5.684;2023-08-20T10:29:42;0.77;;;0.20;;
42754;SDS011;28407;51.830;5.684;2023-08-20T10:31:45;0.43;;;0.20;;
42754;SDS011;28407;51.830;5.684;2023-08-20T10:40:46;0.63;;;0.15;;
42754;SDS011;28407;51.830;5.684;2023-08-20T10:42:49;0.38;;;0.10;;
42754;SDS011;28407;51.830;5.684;2023-08-20T10:45:04;1.27;;;0.25;;
42754;SDS011;28407;51.830;5.684;2023-08-20T10:47:08;0.43;;;0.20;;
42754;SDS011;28407;51.830;5.684;2023-08-20T10:49:09;1.30;;;0.20;;
42754;SDS011;28407;51.830;5.684;2023-08-20T10:51:18;0.52;;;0.10;;
42754;SDS011;28407;51.830;5.684;2023-08-20T10:53:24;0.25;;;0.20;;
42754;SDS011;28407;51.830;5.684;2023-08-20T10:55:24;0.80;;;0.22;;
42754;SDS011;28407;51.830;5.684;2023-08-20T10:57:32;1.17;;;0.30;;
42754;SDS011;28407;51.830;5.684;2023-08-20T10:59:34;1.40;;;0.10;;
42754;SDS011;28407;51.830;5.684;2023-08-20T11:01:40;0.80;;;0.13;;
42754;SDS011;28407;51.830;5.684;2023-08-20T11:03:48;0.43;;;0.10;;
42754;SDS011;28407;51.830;5.684;2023-08-20T11:05:50;2.70;;;0.22;;
42754;SDS011;28407;51.830;5.684;2023-08-20T11:07:51;0.87;;;0.20;;
42754;SDS011;28407;51.830;5.684;2023-08-20T11:09:52;2.05;;;0.20;;
42754;SDS011;28407;51.830;5.684;2023-08-20T11:11:53;0.73;;;0.10;;
42754;SDS011;28407;51.830;5.684;2023-08-20T11:13:54;0.85;;;0.20;;
42754;SDS011;28407;51.830;5.684;2023-08-20T11:15:55;1.10;;;0.30;;
42754;SDS011;28407;51.830;5.684;2023-08-20T11:17:56;0.73;;;0.20;;
42754;SDS011;28407;51.830;5.684;2023-08-20T11:19:57;0.40;;;0.10;;
42754;SDS011;28407;51.830;5.684;2023-08-20T11:21:58;0.80;;;0.10;;
42754;SDS011;28407;51.830;5.684;2023-08-20T11:24:00;1.02;;;0.20;;
42754;SDS011;28407;51.830;5.684;2023-08-20T11:26:01;0.40;;;0.10;;
42754;SDS011;28407;51.830;5.684;2023-08-20T11:28:02;1.55;;;0.20;;
42754;SDS011;28407;51.830;5.684;2023-08-20T11:30:03;1.90;;;0.20;;
42754;SDS011;28407;51.830;5.684;2023-08-20T11:32:04;0.32;;;0.10;;
42754;SDS011;28407;51.830;5.684;2023-08-20T11:34:05;2.28;;;1.08;;
42754;SDS011;28407;51.830;5.684;2023-08-20T11:36:06;0.47;;;0.10;;
42754;SDS011;28407;51.830;5.684;2023-08-20T11:38:07;0.75;;;0.10;;
42754;SDS011;28407;51.830;5.684;2023-08-20T11:40:09;0.90;;;0.20;;
42754;SDS011;28407;51.830;5.684;2023-08-20T11:42:10;0.63;;;0.20;;
42754;SDS011;28407;51.830;5.684;2023-08-20T11:44:18;0.85;;;0.10;;
42754;SDS011;28407;51.830;5.684;2023-08-20T11:46:23;2.00;;;0.20;;
42754;SDS011;28407;51.830;5.684;2023-08-20T11:48:24;0.63;;;0.10;;
42754;SDS011;28407;51.830;5.684;2023-08-20T11:50:25;1.30;;;0.20;;
42754;SDS011;28407;51.830;5.684;2023-08-20T11:52:25;0.93;;;0.20;;
42754;SDS011;28407;51.830;5.684;2023-08-20T11:54:26;0.65;;;0.13;;
42754;SDS011;28407;51.830;5.684;2023-08-20T11:56:27;0.47;;;0.10;;
42754;SDS011;28407;51.830;5.684;2023-08-20T11:58:28;0.45;;;0.10;;
42754;SDS011;28407;51.830;5.684;2023-08-20T12:00:30;2.10;;;0.20;;
42754;SDS011;28407;51.830;5.684;2023-08-20T12:02:31;1.02;;;0.40;;
42754;SDS011;28407;51.830;5.684;2023-08-20T12:04:32;0.73;;;0.20;;
42754;SDS011;28407;51.830;5.684;2023-08-20T12:06:33;0.10;;;0.00;;
42754;SDS011;28407;51.830;5.684;2023-08-20T12:08:38;0.82;;;0.20;;
42754;SDS011;28407;51.830;5.684;2023-08-20T12:10:41;0.55;;;0.10;;
42754;SDS011;28407;51.830;5.684;2023-08-20T12:12:42;0.57;;;0.10;;
42754;SDS011;28407;51.830;5.684;2023-08-20T12:14:43;0.83;;;0.00;;
42754;SDS011;28407;51.830;5.684;2023-08-20T12:16:44;0.93;;;0.10;;
42754;SDS011;28407;51.830;5.684;2023-08-20T12:18:45;0.63;;;0.17;;
42754;SDS011;28407;51.830;5.684;2023-08-20T12:20:46;0.55;;;0.05;;
42754;SDS011;28407;51.830;5.684;2023-08-20T12:22:47;2.50;;;0.20;;
42754;SDS011;28407;51.830;5.684;2023-08-20T12:24:48;0.50;;;0.10;;
42754;SDS011;28407;51.830;5.684;2023-08-20T12:26:51;2.22;;;0.40;;
42754;SDS011;28407;51.830;5.684;2023-08-20T12:28:53;0.40;;;0.10;;
42754;SDS011;28407;51.830;5.684;2023-08-20T12:32:55;2.47;;;0.15;;
42754;SDS011;28407;51.830;5.684;2023-08-20T12:34:56;2.03;;;0.10;;
42754;SDS011;28407;51.830;5.684;2023-08-20T12:36:56;1.50;;;0.43;;
42754;SDS011;28407;51.830;5.684;2023-08-20T12:38:57;0.37;;;0.10;;